sensor_id;sensor_type;location;lat;lon;timestamp;P1;durP1;ratioP1;P2;durP2;ratioP2
20731;SDS011;10527;52.124;5.196;2022-09-09T00:01:54;0.68;;;0.63;;
20731;SDS011;10527;52.124;5.196;2022-09-09T00:04:44;1.67;;;0.93;;
20731;SDS011;10527;52.124;5.196;2022-09-09T00:07:41;2.63;;;0.68;;
20731;SDS011;10527;52.124;5.196;2022-09-09T00:21:21;0.82;;;0.82;;
20731;SDS011;10527;52.124;5.196;2022-09-09T00:23:58;1.50;;;0.90;;
20731;SDS011;10527;52.124;5.196;2022-09-09T00:26:38;1.30;;;1.00;;
20731;SDS011;10527;52.124;5.196;2022-09-09T00:29:53;3.13;;;0.80;;
20731;SDS011;10527;52.124;5.196;2022-09-09T00:32:28;2.35;;;1.05;;
20731;SDS011;10527;52.124;5.196;2022-09-09T00:35:01;1.98;;;1.23;;
20731;SDS011;10527;52.124;5.196;2022-09-09T00:37:50;2.38;;;1.00;;
20731;SDS011;10527;52.124;5.196;2022-09-09T00:40:34;2.13;;;0.90;;
20731;SDS011;10527;52.124;5.196;2022-09-09T00:49:59;2.70;;;0.98;;
20731;SDS011;10527;52.124;5.196;2022-09-09T00:56:16;1.33;;;0.77;;
20731;SDS011;10527;52.124;5.196;2022-09-09T00:59:15;1.13;;;0.75;;
20731;SDS011;10527;52.124;5.196;2022-09-09T01:02:25;1.63;;;1.08;;
20731;SDS011;10527;52.124;5.196;2022-09-09T01:05:44;2.28;;;1.15;;
20731;SDS011;10527;52.124;5.196;2022-09-09T01:08:18;2.15;;;1.17;;
20731;SDS011;10527;52.124;5.196;2022-09-09T01:11:20;1.58;;;0.88;;
20731;SDS011;10527;52.124;5.196;2022-09-09T01:13:58;2.05;;;0.95;;
20731;SDS011;10527;52.124;5.196;2022-09-09T01:16:43;3.05;;;1.20;;
20731;SDS011;10527;52.124;5.196;2022-09-09T01:19:15;1.35;;;1.10;;
20731;SDS011;10527;52.124;5.196;2022-09-09T01:22:42;1.33;;;1.00;;
20731;SDS011;10527;52.124;5.196;2022-09-09T01:27:56;2.85;;;1.23;;
20731;SDS011;10527;52.124;5.196;2022-09-09T01:30:28;2.17;;;1.10;;
20731;SDS011;10527;52.124;5.196;2022-09-09T01:32:56;1.85;;;0.90;;
20731;SDS011;10527;52.124;5.196;2022-09-09T01:35:32;2.00;;;1.02;;
20731;SDS011;10527;52.124;5.196;2022-09-09T01:38:23;1.25;;;0.98;;
20731;SDS011;10527;52.124;5.196;2022-09-09T01:40:51;2.80;;;1.05;;
20731;SDS011;10527;52.124;5.196;2022-09-09T01:43:22;1.88;;;1.00;;
20731;SDS011;10527;52.124;5.196;2022-09-09T01:45:52;1.42;;;1.33;;
20731;SDS011;10527;52.124;5.196;2022-09-09T01:48:22;1.67;;;1.20;;
20731;SDS011;10527;52.124;5.196;2022-09-09T01:50:51;2.33;;;1.10;;
20731;SDS011;10527;52.124;5.196;2022-09-09T01:53:18;3.15;;;1.23;;
20731;SDS011;10527;52.124;5.196;2022-09-09T02:01:34;3.55;;;1.40;;
20731;SDS011;10527;52.124;5.196;2022-09-09T02:04:36;1.38;;;1.17;;
20731;SDS011;10527;52.124;5.196;2022-09-09T02:07:46;2.05;;;1.48;;
20731;SDS011;10527;52.124;5.196;2022-09-09T02:10:21;3.42;;;1.70;;
20731;SDS011;10527;52.124;5.196;2022-09-09T02:13:16;2.58;;;1.52;;
20731;SDS011;10527;52.124;5.196;2022-09-09T02:19:06;2.13;;;1.50;;
20731;SDS011;10527;52.124;5.196;2022-09-09T02:21:44;4.75;;;1.70;;
20731;SDS011;10527;52.124;5.196;2022-09-09T02:24:14;2.58;;;1.35;;
20731;SDS011;10527;52.124;5.196;2022-09-09T02:26:43;2.47;;;1.48;;
20731;SDS011;10527;52.124;5.196;2022-09-09T02:29:31;2.45;;;2.05;;
20731;SDS011;10527;52.124;5.196;2022-09-09T02:32:05;2.95;;;1.58;;
20731;SDS011;10527;52.124;5.196;2022-09-09T02:34:42;4.45;;;1.80;;
20731;SDS011;10527;52.124;5.196;2022-09-09T02:37:15;4.35;;;1.70;;
20731;SDS011;10527;52.124;5.196;2022-09-09T02:39:49;3.25;;;1.55;;
20731;SDS011;10527;52.124;5.196;2022-09-09T02:42:16;6.07;;;1.88;;
20731;SDS011;10527;52.124;5.196;2022-09-09T02:44:42;3.45;;;1.77;;
20731;SDS011;10527;52.124;5.196;2022-09-09T02:55:52;4.07;;;2.00;;
20731;SDS011;10527;52.124;5.196;2022-09-09T02:58:33;3.00;;;1.70;;
20731;SDS011;10527;52.124;5.196;2022-09-09T03:01:00;3.05;;;1.80;;
20731;SDS011;10527;52.124;5.196;2022-09-09T03:03:29;2.75;;;1.73;;
20731;SDS011;10527;52.124;5.196;2022-09-09T03:05:56;4.60;;;2.40;;
20731;SDS011;10527;52.124;5.196;2022-09-09T03:08:23;4.05;;;2.00;;
20731;SDS011;10527;52.124;5.196;2022-09-09T03:10:51;2.80;;;1.70;;
20731;SDS011;10527;52.124;5.196;2022-09-09T03:13:20;2.35;;;1.60;;
20731;SDS011;10527;52.124;5.196;2022-09-09T03:15:47;2.72;;;2.00;;
20731;SDS011;10527;52.124;5.196;2022-09-09T03:18:14;2.00;;;1.50;;
20731;SDS011;10527;52.124;5.196;2022-09-09T03:20:41;3.65;;;1.90;;
20731;SDS011;10527;52.124;5.196;2022-09-09T03:23:12;2.40;;;1.63;;
20731;SDS011;10527;52.124;5.196;2022-09-09T03:25:46;2.50;;;1.70;;
20731;SDS011;10527;52.124;5.196;2022-09-09T03:28:18;2.45;;;1.50;;
20731;SDS011;10527;52.124;5.196;2022-09-09T03:30:45;4.13;;;1.77;;
20731;SDS011;10527;52.124;5.196;2022-09-09T03:33:12;5.00;;;1.92;;
20731;SDS011;10527;52.124;5.196;2022-09-09T03:35:44;2.72;;;1.83;;
20731;SDS011;10527;52.124;5.196;2022-09-09T03:38:16;2.25;;;1.63;;
20731;SDS011;10527;52.124;5.196;2022-09-09T03:40:50;4.47;;;2.30;;
20731;SDS011;10527;52.124;5.196;2022-09-09T03:43:21;3.60;;;1.85;;
20731;SDS011;10527;52.124;5.196;2022-09-09T03:45:49;2.50;;;1.85;;
20731;SDS011;10527;52.124;5.196;2022-09-09T03:48:18;5.18;;;3.05;;
20731;SDS011;10527;52.124;5.196;2022-09-09T03:50:46;2.63;;;1.73;;
20731;SDS011;10527;52.124;5.196;2022-09-09T03:53:17;3.38;;;2.47;;
20731;SDS011;10527;52.124;5.196;2022-09-09T03:55:46;2.47;;;2.03;;
20731;SDS011;10527;52.124;5.196;2022-09-09T03:58:22;4.35;;;2.42;;
20731;SDS011;10527;52.124;5.196;2022-09-09T04:00:53;2.05;;;1.80;;
20731;SDS011;10527;52.124;5.196;2022-09-09T04:03:26;2.60;;;1.88;;
20731;SDS011;10527;52.124;5.196;2022-09-09T04:05:55;3.40;;;1.70;;
20731;SDS011;10527;52.124;5.196;2022-09-09T04:08:24;6.25;;;1.55;;
20731;SDS011;10527;52.124;5.196;2022-09-09T04:10:52;3.33;;;2.45;;
20731;SDS011;10527;52.124;5.196;2022-09-09T04:13:24;3.63;;;1.65;;
20731;SDS011;10527;52.124;5.196;2022-09-09T04:15:52;3.58;;;1.90;;
20731;SDS011;10527;52.124;5.196;2022-09-09T04:18:22;3.15;;;1.80;;
20731;SDS011;10527;52.124;5.196;2022-09-09T04:20:52;3.30;;;2.00;;
20731;SDS011;10527;52.124;5.196;2022-09-09T04:23:20;4.57;;;2.00;;
20731;SDS011;10527;52.124;5.196;2022-09-09T04:25:49;2.30;;;1.60;;
20731;SDS011;10527;52.124;5.196;2022-09-09T04:28:19;3.97;;;2.00;;
20731;SDS011;10527;52.124;5.196;2022-09-09T04:30:48;2.53;;;1.75;;
20731;SDS011;10527;52.124;5.196;2022-09-09T04:33:15;3.25;;;2.25;;
20731;SDS011;10527;52.124;5.196;2022-09-09T04:35:44;3.40;;;2.03;;
20731;SDS011;10527;52.124;5.196;2022-09-09T04:38:14;3.85;;;1.77;;
20731;SDS011;10527;52.124;5.196;2022-09-09T04:40:43;2.28;;;1.73;;
20731;SDS011;10527;52.124;5.196;2022-09-09T04:43:13;3.85;;;1.50;;
20731;SDS011;10527;52.124;5.196;2022-09-09T04:45:41;5.30;;;1.73;;
20731;SDS011;10527;52.124;5.196;2022-09-09T04:48:09;2.55;;;1.80;;
20731;SDS011;10527;52.124;5.196;2022-09-09T04:50:37;2.38;;;1.90;;
20731;SDS011;10527;52.124;5.196;2022-09-09T04:53:04;3.85;;;1.63;;
20731;SDS011;10527;52.124;5.196;2022-09-09T04:55:34;3.42;;;1.58;;
20731;SDS011;10527;52.124;5.196;2022-09-09T04:58:05;3.33;;;1.95;;
20731;SDS011;10527;52.124;5.196;2022-09-09T05:00:37;4.20;;;1.67;;
20731;SDS011;10527;52.124;5.196;2022-09-09T05:03:04;4.75;;;1.92;;
20731;SDS011;10527;52.124;5.196;2022-09-09T05:05:32;2.97;;;1.50;;
20731;SDS011;10527;52.124;5.196;2022-09-09T05:08:01;2.65;;;1.48;;
20731;SDS011;10527;52.124;5.196;2022-09-09T05:10:32;3.90;;;1.55;;
20731;SDS011;10527;52.124;5.196;2022-09-09T05:12:59;4.25;;;1.55;;
20731;SDS011;10527;52.124;5.196;2022-09-09T05:15:29;2.88;;;1.70;;
20731;SDS011;10527;52.124;5.196;2022-09-09T05:18:00;3.38;;;1.58;;
20731;SDS011;10527;52.124;5.196;2022-09-09T05:20:38;3.53;;;1.52;;
20731;SDS011;10527;52.124;5.196;2022-09-09T05:23:05;2.47;;;1.70;;
20731;SDS011;10527;52.124;5.196;2022-09-09T05:25:31;2.60;;;1.55;;
20731;SDS011;10527;52.124;5.196;2022-09-09T05:27:58;5.80;;;2.20;;
20731;SDS011;10527;52.124;5.196;2022-09-09T05:30:25;2.05;;;1.42;;
20731;SDS011;10527;52.124;5.196;2022-09-09T05:32:52;4.43;;;1.40;;
20731;SDS011;10527;52.124;5.196;2022-09-09T05:35:22;4.93;;;1.85;;
20731;SDS011;10527;52.124;5.196;2022-09-09T05:37:49;3.00;;;1.73;;
20731;SDS011;10527;52.124;5.196;2022-09-09T05:40:16;2.95;;;1.40;;
20731;SDS011;10527;52.124;5.196;2022-09-09T05:42:43;2.28;;;1.23;;
20731;SDS011;10527;52.124;5.196;2022-09-09T05:45:18;2.05;;;1.33;;
20731;SDS011;10527;52.124;5.196;2022-09-09T05:47:50;5.82;;;2.45;;
20731;SDS011;10527;52.124;5.196;2022-09-09T05:50:21;4.03;;;1.80;;
20731;SDS011;10527;52.124;5.196;2022-09-09T05:52:48;3.47;;;1.77;;
20731;SDS011;10527;52.124;5.196;2022-09-09T05:55:15;3.65;;;1.38;;
20731;SDS011;10527;52.124;5.196;2022-09-09T05:57:47;3.28;;;1.17;;
20731;SDS011;10527;52.124;5.196;2022-09-09T06:00:15;3.05;;;1.85;;
20731;SDS011;10527;52.124;5.196;2022-09-09T06:02:42;3.97;;;1.70;;
20731;SDS011;10527;52.124;5.196;2022-09-09T06:05:10;3.25;;;1.40;;
20731;SDS011;10527;52.124;5.196;2022-09-09T06:07:36;6.15;;;1.65;;
20731;SDS011;10527;52.124;5.196;2022-09-09T06:10:03;4.13;;;1.50;;
20731;SDS011;10527;52.124;5.196;2022-09-09T06:12:41;3.25;;;1.50;;
20731;SDS011;10527;52.124;5.196;2022-09-09T06:15:08;5.10;;;2.10;;
20731;SDS011;10527;52.124;5.196;2022-09-09T06:17:35;2.67;;;1.17;;
20731;SDS011;10527;52.124;5.196;2022-09-09T06:20:02;3.58;;;1.58;;
20731;SDS011;10527;52.124;5.196;2022-09-09T06:22:29;6.57;;;1.60;;
20731;SDS011;10527;52.124;5.196;2022-09-09T06:24:56;5.28;;;1.35;;
20731;SDS011;10527;52.124;5.196;2022-09-09T06:27:23;3.45;;;1.40;;
20731;SDS011;10527;52.124;5.196;2022-09-09T06:29:50;3.60;;;1.33;;
20731;SDS011;10527;52.124;5.196;2022-09-09T06:32:16;4.20;;;1.30;;
20731;SDS011;10527;52.124;5.196;2022-09-09T06:34:43;3.00;;;1.10;;
20731;SDS011;10527;52.124;5.196;2022-09-09T06:37:12;4.40;;;1.27;;
20731;SDS011;10527;52.124;5.196;2022-09-09T06:39:40;4.88;;;1.58;;
20731;SDS011;10527;52.124;5.196;2022-09-09T06:42:07;3.25;;;1.60;;
20731;SDS011;10527;52.124;5.196;2022-09-09T06:44:34;4.32;;;1.15;;
20731;SDS011;10527;52.124;5.196;2022-09-09T06:47:02;1.83;;;0.88;;
20731;SDS011;10527;52.124;5.196;2022-09-09T06:49:29;4.03;;;1.30;;
20731;SDS011;10527;52.124;5.196;2022-09-09T06:51:56;2.25;;;0.93;;
20731;SDS011;10527;52.124;5.196;2022-09-09T06:54:24;4.65;;;1.30;;
20731;SDS011;10527;52.124;5.196;2022-09-09T06:56:51;2.85;;;1.25;;
20731;SDS011;10527;52.124;5.196;2022-09-09T06:59:18;2.67;;;1.20;;
20731;SDS011;10527;52.124;5.196;2022-09-09T07:01:44;8.43;;;1.70;;
20731;SDS011;10527;52.124;5.196;2022-09-09T07:04:17;3.10;;;1.10;;
20731;SDS011;10527;52.124;5.196;2022-09-09T07:06:44;4.97;;;1.20;;
20731;SDS011;10527;52.124;5.196;2022-09-09T07:09:21;4.03;;;1.48;;
20731;SDS011;10527;52.124;5.196;2022-09-09T07:11:49;5.25;;;1.10;;
20731;SDS011;10527;52.124;5.196;2022-09-09T07:14:18;2.83;;;1.23;;
20731;SDS011;10527;52.124;5.196;2022-09-09T07:16:46;3.90;;;1.15;;
20731;SDS011;10527;52.124;5.196;2022-09-09T07:19:13;6.25;;;1.20;;
20731;SDS011;10527;52.124;5.196;2022-09-09T07:21:40;8.52;;;1.40;;
20731;SDS011;10527;52.124;5.196;2022-09-09T07:24:08;3.22;;;1.05;;
20731;SDS011;10527;52.124;5.196;2022-09-09T07:26:37;6.60;;;1.83;;
20731;SDS011;10527;52.124;5.196;2022-09-09T07:29:05;7.22;;;1.40;;
20731;SDS011;10527;52.124;5.196;2022-09-09T07:31:34;6.43;;;1.33;;
20731;SDS011;10527;52.124;5.196;2022-09-09T07:34:03;5.20;;;1.10;;
20731;SDS011;10527;52.124;5.196;2022-09-09T07:36:48;5.78;;;1.25;;
20731;SDS011;10527;52.124;5.196;2022-09-09T07:39:15;5.70;;;1.40;;
20731;SDS011;10527;52.124;5.196;2022-09-09T07:41:44;5.07;;;2.08;;
20731;SDS011;10527;52.124;5.196;2022-09-09T07:44:18;4.57;;;1.63;;
20731;SDS011;10527;52.124;5.196;2022-09-09T07:46:48;4.47;;;1.15;;
20731;SDS011;10527;52.124;5.196;2022-09-09T07:49:15;4.57;;;1.48;;
20731;SDS011;10527;52.124;5.196;2022-09-09T07:52:09;5.75;;;1.35;;
20731;SDS011;10527;52.124;5.196;2022-09-09T07:54:40;4.32;;;1.20;;
20731;SDS011;10527;52.124;5.196;2022-09-09T07:57:08;5.68;;;1.75;;
20731;SDS011;10527;52.124;5.196;2022-09-09T07:59:34;8.73;;;1.25;;
20731;SDS011;10527;52.124;5.196;2022-09-09T08:02:01;5.82;;;1.15;;
20731;SDS011;10527;52.124;5.196;2022-09-09T08:04:28;5.40;;;1.55;;
20731;SDS011;10527;52.124;5.196;2022-09-09T08:06:56;2.63;;;1.08;;
20731;SDS011;10527;52.124;5.196;2022-09-09T08:09:25;3.72;;;1.15;;
20731;SDS011;10527;52.124;5.196;2022-09-09T08:11:55;8.43;;;1.38;;
20731;SDS011;10527;52.124;5.196;2022-09-09T08:14:24;5.10;;;1.08;;
20731;SDS011;10527;52.124;5.196;2022-09-09T08:16:51;6.75;;;1.42;;
20731;SDS011;10527;52.124;5.196;2022-09-09T08:19:20;5.00;;;1.20;;
20731;SDS011;10527;52.124;5.196;2022-09-09T08:21:47;3.42;;;1.20;;
20731;SDS011;10527;52.124;5.196;2022-09-09T08:24:16;5.22;;;1.45;;
20731;SDS011;10527;52.124;5.196;2022-09-09T08:26:46;3.17;;;0.98;;
20731;SDS011;10527;52.124;5.196;2022-09-09T08:29:17;3.15;;;1.00;;
20731;SDS011;10527;52.124;5.196;2022-09-09T08:31:48;4.03;;;1.38;;
20731;SDS011;10527;52.124;5.196;2022-09-09T08:34:21;3.47;;;1.00;;
20731;SDS011;10527;52.124;5.196;2022-09-09T08:36:48;5.40;;;1.00;;
20731;SDS011;10527;52.124;5.196;2022-09-09T08:39:17;3.20;;;0.88;;
20731;SDS011;10527;52.124;5.196;2022-09-09T08:41:56;6.60;;;1.00;;
20731;SDS011;10527;52.124;5.196;2022-09-09T08:45:03;3.88;;;0.95;;
20731;SDS011;10527;52.124;5.196;2022-09-09T08:47:51;5.63;;;1.30;;
20731;SDS011;10527;52.124;5.196;2022-09-09T08:50:37;3.72;;;0.93;;
20731;SDS011;10527;52.124;5.196;2022-09-09T08:53:11;3.75;;;0.98;;
20731;SDS011;10527;52.124;5.196;2022-09-09T08:55:59;3.13;;;0.90;;
20731;SDS011;10527;52.124;5.196;2022-09-09T08:58:34;10.77;;;1.13;;
20731;SDS011;10527;52.124;5.196;2022-09-09T09:06:50;4.93;;;0.93;;
20731;SDS011;10527;52.124;5.196;2022-09-09T09:13:01;3.67;;;0.98;;
20731;SDS011;10527;52.124;5.196;2022-09-09T09:15:31;5.20;;;1.05;;
20731;SDS011;10527;52.124;5.196;2022-09-09T09:18:04;3.22;;;0.70;;
20731;SDS011;10527;52.124;5.196;2022-09-09T09:20:55;4.15;;;1.23;;
20731;SDS011;10527;52.124;5.196;2022-09-09T09:23:36;3.30;;;0.98;;
20731;SDS011;10527;52.124;5.196;2022-09-09T09:26:14;6.50;;;1.13;;
20731;SDS011;10527;52.124;5.196;2022-09-09T09:28:41;4.05;;;1.00;;
20731;SDS011;10527;52.124;5.196;2022-09-09T09:31:09;6.00;;;1.00;;
20731;SDS011;10527;52.124;5.196;2022-09-09T09:36:12;2.85;;;0.60;;
20731;SDS011;10527;52.124;5.196;2022-09-09T09:38:53;7.18;;;1.65;;
20731;SDS011;10527;52.124;5.196;2022-09-09T09:41:46;4.82;;;1.10;;
20731;SDS011;10527;52.124;5.196;2022-09-09T09:47:04;2.72;;;0.82;;
20731;SDS011;10527;52.124;5.196;2022-09-09T09:52:26;5.20;;;0.90;;
20731;SDS011;10527;52.124;5.196;2022-09-09T09:54:58;3.38;;;1.00;;
20731;SDS011;10527;52.124;5.196;2022-09-09T09:57:33;6.18;;;1.17;;
20731;SDS011;10527;52.124;5.196;2022-09-09T10:00:12;4.65;;;0.95;;
20731;SDS011;10527;52.124;5.196;2022-09-09T10:02:41;5.30;;;1.20;;
20731;SDS011;10527;52.124;5.196;2022-09-09T10:05:15;6.35;;;1.20;;
20731;SDS011;10527;52.124;5.196;2022-09-09T10:13:29;3.65;;;0.90;;
20731;SDS011;10527;52.124;5.196;2022-09-09T10:16:37;4.70;;;1.10;;
20731;SDS011;10527;52.124;5.196;2022-09-09T10:19:33;5.20;;;1.30;;
20731;SDS011;10527;52.124;5.196;2022-09-09T10:28:24;5.82;;;1.20;;
20731;SDS011;10527;52.124;5.196;2022-09-09T10:33:50;4.80;;;0.90;;
20731;SDS011;10527;52.124;5.196;2022-09-09T10:36:56;5.28;;;1.25;;
20731;SDS011;10527;52.124;5.196;2022-09-09T10:39:37;3.13;;;1.00;;
20731;SDS011;10527;52.124;5.196;2022-09-09T10:42:15;6.13;;;1.70;;
20731;SDS011;10527;52.124;5.196;2022-09-09T10:50:31;4.15;;;1.20;;
20731;SDS011;10527;52.124;5.196;2022-09-09T10:53:37;3.72;;;0.90;;
20731;SDS011;10527;52.124;5.196;2022-09-09T10:56:18;4.57;;;1.15;;
20731;SDS011;10527;52.124;5.196;2022-09-09T11:01:32;5.07;;;1.10;;
20731;SDS011;10527;52.124;5.196;2022-09-09T11:04:10;6.65;;;1.73;;
20731;SDS011;10527;52.124;5.196;2022-09-09T11:07:07;4.22;;;1.15;;
20731;SDS011;10527;52.124;5.196;2022-09-09T11:09:49;4.22;;;1.20;;
20731;SDS011;10527;52.124;5.196;2022-09-09T11:12:26;3.78;;;1.20;;
20731;SDS011;10527;52.124;5.196;2022-09-09T11:15:04;6.20;;;2.10;;
20731;SDS011;10527;52.124;5.196;2022-09-09T11:17:50;4.13;;;1.40;;
20731;SDS011;10527;52.124;5.196;2022-09-09T11:20:26;2.90;;;1.05;;
20731;SDS011;10527;52.124;5.196;2022-09-09T11:23:09;3.85;;;1.45;;
20731;SDS011;10527;52.124;5.196;2022-09-09T11:25:52;3.53;;;1.20;;
20731;SDS011;10527;52.124;5.196;2022-09-09T11:28:32;4.45;;;1.10;;
20731;SDS011;10527;52.124;5.196;2022-09-09T11:34:16;4.85;;;1.20;;
20731;SDS011;10527;52.124;5.196;2022-09-09T11:40:17;3.10;;;0.80;;
20731;SDS011;10527;52.124;5.196;2022-09-09T11:45:41;2.50;;;0.90;;
20731;SDS011;10527;52.124;5.196;2022-09-09T11:48:25;3.55;;;0.95;;
20731;SDS011;10527;52.124;5.196;2022-09-09T11:51:00;2.35;;;0.90;;
20731;SDS011;10527;52.124;5.196;2022-09-09T11:53:50;2.63;;;0.88;;
20731;SDS011;10527;52.124;5.196;2022-09-09T11:56:29;3.35;;;1.27;;
20731;SDS011;10527;52.124;5.196;2022-09-09T11:59:21;1.95;;;0.68;;
20731;SDS011;10527;52.124;5.196;2022-09-09T12:10:39;2.13;;;1.00;;
20731;SDS011;10527;52.124;5.196;2022-09-09T12:12:51;5.18;;;1.80;;
20731;SDS011;10527;52.124;5.196;2022-09-09T12:15:20;5.15;;;1.58;;
20731;SDS011;10527;52.124;5.196;2022-09-09T12:17:57;10.23;;;1.75;;
20731;SDS011;10527;52.124;5.196;2022-09-09T12:31:55;3.28;;;1.00;;
20731;SDS011;10527;52.124;5.196;2022-09-09T12:40:05;2.67;;;0.90;;
20731;SDS011;10527;52.124;5.196;2022-09-09T12:42:55;1.98;;;0.82;;
20731;SDS011;10527;52.124;5.196;2022-09-09T12:45:23;3.65;;;0.85;;
20731;SDS011;10527;52.124;5.196;2022-09-09T12:48:08;8.32;;;1.13;;
20731;SDS011;10527;52.124;5.196;2022-09-09T12:50:48;4.18;;;1.45;;
20731;SDS011;10527;52.124;5.196;2022-09-09T12:53:26;1.92;;;0.90;;
20731;SDS011;10527;52.124;5.196;2022-09-09T12:56:06;4.53;;;1.30;;
20731;SDS011;10527;52.124;5.196;2022-09-09T12:58:45;3.85;;;1.20;;
20731;SDS011;10527;52.124;5.196;2022-09-09T13:01:20;3.25;;;1.20;;
20731;SDS011;10527;52.124;5.196;2022-09-09T13:04:02;1.67;;;0.90;;
20731;SDS011;10527;52.124;5.196;2022-09-09T13:06:29;2.17;;;0.85;;
20731;SDS011;10527;52.124;5.196;2022-09-09T13:08:59;3.17;;;1.00;;
20731;SDS011;10527;52.124;5.196;2022-09-09T13:14:27;3.50;;;0.88;;
20731;SDS011;10527;52.124;5.196;2022-09-09T13:17:02;4.07;;;1.13;;
20731;SDS011;10527;52.124;5.196;2022-09-09T13:19:35;3.88;;;1.13;;
20731;SDS011;10527;52.124;5.196;2022-09-09T13:22:11;3.30;;;1.30;;
20731;SDS011;10527;52.124;5.196;2022-09-09T13:25:02;1.42;;;0.70;;
20731;SDS011;10527;52.124;5.196;2022-09-09T13:30:33;2.72;;;0.82;;
20731;SDS011;10527;52.124;5.196;2022-09-09T13:33:18;2.45;;;0.98;;
20731;SDS011;10527;52.124;5.196;2022-09-09T13:35:54;3.08;;;0.90;;
20731;SDS011;10527;52.124;5.196;2022-09-09T13:38:32;4.03;;;1.25;;
20731;SDS011;10527;52.124;5.196;2022-09-09T13:41:23;6.68;;;1.00;;
20731;SDS011;10527;52.124;5.196;2022-09-09T13:43:56;2.53;;;0.90;;
20731;SDS011;10527;52.124;5.196;2022-09-09T13:51:41;2.03;;;0.90;;
20731;SDS011;10527;52.124;5.196;2022-09-09T13:54:13;2.55;;;0.80;;
20731;SDS011;10527;52.124;5.196;2022-09-09T13:56:44;3.95;;;1.10;;
20731;SDS011;10527;52.124;5.196;2022-09-09T13:59:19;3.15;;;1.15;;
20731;SDS011;10527;52.124;5.196;2022-09-09T14:01:46;2.38;;;1.00;;
20731;SDS011;10527;52.124;5.196;2022-09-09T14:04:13;4.25;;;1.05;;
20731;SDS011;10527;52.124;5.196;2022-09-09T14:06:41;2.33;;;1.02;;
20731;SDS011;10527;52.124;5.196;2022-09-09T14:09:10;3.92;;;1.15;;
20731;SDS011;10527;52.124;5.196;2022-09-09T14:11:42;3.60;;;1.13;;
20731;SDS011;10527;52.124;5.196;2022-09-09T14:14:11;2.90;;;1.20;;
20731;SDS011;10527;52.124;5.196;2022-09-09T14:16:39;2.28;;;1.05;;
20731;SDS011;10527;52.124;5.196;2022-09-09T14:19:07;3.42;;;1.40;;
20731;SDS011;10527;52.124;5.196;2022-09-09T14:21:35;3.22;;;1.08;;
20731;SDS011;10527;52.124;5.196;2022-09-09T14:24:04;4.47;;;1.25;;
20731;SDS011;10527;52.124;5.196;2022-09-09T14:26:32;3.10;;;1.27;;
20731;SDS011;10527;52.124;5.196;2022-09-09T14:28:59;3.40;;;1.15;;
20731;SDS011;10527;52.124;5.196;2022-09-09T14:31:28;2.38;;;1.02;;
20731;SDS011;10527;52.124;5.196;2022-09-09T14:33:54;2.83;;;1.20;;
20731;SDS011;10527;52.124;5.196;2022-09-09T14:36:21;4.22;;;1.23;;
20731;SDS011;10527;52.124;5.196;2022-09-09T14:38:50;2.67;;;1.27;;
20731;SDS011;10527;52.124;5.196;2022-09-09T14:41:18;2.83;;;1.05;;
20731;SDS011;10527;52.124;5.196;2022-09-09T14:43:48;3.30;;;1.10;;
20731;SDS011;10527;52.124;5.196;2022-09-09T14:46:16;4.13;;;1.02;;
20731;SDS011;10527;52.124;5.196;2022-09-09T14:48:45;1.98;;;1.00;;
20731;SDS011;10527;52.124;5.196;2022-09-09T14:51:19;3.38;;;0.98;;
20731;SDS011;10527;52.124;5.196;2022-09-09T14:53:52;2.20;;;1.02;;
20731;SDS011;10527;52.124;5.196;2022-09-09T14:56:26;2.97;;;1.10;;
20731;SDS011;10527;52.124;5.196;2022-09-09T14:59:06;2.08;;;1.00;;
20731;SDS011;10527;52.124;5.196;2022-09-09T15:01:33;2.58;;;0.80;;
20731;SDS011;10527;52.124;5.196;2022-09-09T15:04:03;4.53;;;2.22;;
20731;SDS011;10527;52.124;5.196;2022-09-09T15:06:35;2.70;;;0.60;;
20731;SDS011;10527;52.124;5.196;2022-09-09T15:09:05;2.28;;;0.70;;
20731;SDS011;10527;52.124;5.196;2022-09-09T15:11:36;2.47;;;0.80;;
20731;SDS011;10527;52.124;5.196;2022-09-09T15:14:06;0.95;;;0.52;;
20731;SDS011;10527;52.124;5.196;2022-09-09T15:16:35;1.42;;;0.60;;
20731;SDS011;10527;52.124;5.196;2022-09-09T15:19:05;1.33;;;0.55;;
20731;SDS011;10527;52.124;5.196;2022-09-09T15:21:37;2.60;;;1.05;;
20731;SDS011;10527;52.124;5.196;2022-09-09T15:24:05;0.98;;;0.73;;
20731;SDS011;10527;52.124;5.196;2022-09-09T15:26:34;1.65;;;0.73;;
20731;SDS011;10527;52.124;5.196;2022-09-09T15:29:05;1.25;;;0.63;;
20731;SDS011;10527;52.124;5.196;2022-09-09T15:31:38;1.48;;;0.65;;
20731;SDS011;10527;52.124;5.196;2022-09-09T15:34:12;2.50;;;0.68;;
20731;SDS011;10527;52.124;5.196;2022-09-09T15:37:08;1.58;;;0.47;;
20731;SDS011;10527;52.124;5.196;2022-09-09T15:39:39;3.15;;;1.40;;
20731;SDS011;10527;52.124;5.196;2022-09-09T15:42:09;2.00;;;0.70;;
20731;SDS011;10527;52.124;5.196;2022-09-09T15:44:42;1.35;;;0.70;;
20731;SDS011;10527;52.124;5.196;2022-09-09T15:47:11;1.65;;;0.50;;
20731;SDS011;10527;52.124;5.196;2022-09-09T15:49:39;2.08;;;1.00;;
20731;SDS011;10527;52.124;5.196;2022-09-09T15:52:09;1.88;;;0.73;;
20731;SDS011;10527;52.124;5.196;2022-09-09T15:54:39;1.95;;;0.52;;
20731;SDS011;10527;52.124;5.196;2022-09-09T15:57:07;4.00;;;0.73;;
20731;SDS011;10527;52.124;5.196;2022-09-09T15:59:38;2.88;;;0.70;;
20731;SDS011;10527;52.124;5.196;2022-09-09T16:02:09;0.90;;;0.50;;
20731;SDS011;10527;52.124;5.196;2022-09-09T16:04:49;2.13;;;0.50;;
20731;SDS011;10527;52.124;5.196;2022-09-09T16:07:25;0.68;;;0.52;;
20731;SDS011;10527;52.124;5.196;2022-09-09T16:10:17;2.05;;;0.77;;
20731;SDS011;10527;52.124;5.196;2022-09-09T16:12:47;2.05;;;0.70;;
20731;SDS011;10527;52.124;5.196;2022-09-09T16:15:15;2.33;;;1.10;;
20731;SDS011;10527;52.124;5.196;2022-09-09T16:17:42;2.10;;;0.70;;
20731;SDS011;10527;52.124;5.196;2022-09-09T16:20:09;1.75;;;0.60;;
20731;SDS011;10527;52.124;5.196;2022-09-09T16:22:38;3.22;;;0.80;;
20731;SDS011;10527;52.124;5.196;2022-09-09T16:25:06;2.70;;;0.70;;
20731;SDS011;10527;52.124;5.196;2022-09-09T16:27:33;1.50;;;0.80;;
20731;SDS011;10527;52.124;5.196;2022-09-09T16:30:01;2.58;;;0.70;;
20731;SDS011;10527;52.124;5.196;2022-09-09T16:32:32;2.78;;;0.90;;
20731;SDS011;10527;52.124;5.196;2022-09-09T16:35:01;2.08;;;0.77;;
20731;SDS011;10527;52.124;5.196;2022-09-09T16:37:29;3.60;;;0.90;;
20731;SDS011;10527;52.124;5.196;2022-09-09T16:39:56;4.28;;;0.95;;
20731;SDS011;10527;52.124;5.196;2022-09-09T16:42:23;1.83;;;0.95;;
20731;SDS011;10527;52.124;5.196;2022-09-09T16:44:50;1.73;;;0.85;;
20731;SDS011;10527;52.124;5.196;2022-09-09T16:47:19;2.95;;;1.10;;
20731;SDS011;10527;52.124;5.196;2022-09-09T16:49:47;1.77;;;0.95;;
20731;SDS011;10527;52.124;5.196;2022-09-09T16:52:14;2.20;;;1.02;;
20731;SDS011;10527;52.124;5.196;2022-09-09T16:54:45;2.50;;;1.05;;
20731;SDS011;10527;52.124;5.196;2022-09-09T16:57:15;3.17;;;1.10;;
20731;SDS011;10527;52.124;5.196;2022-09-09T16:59:42;2.80;;;1.20;;
20731;SDS011;10527;52.124;5.196;2022-09-09T17:02:08;2.75;;;1.05;;
20731;SDS011;10527;52.124;5.196;2022-09-09T17:04:35;2.53;;;1.13;;
20731;SDS011;10527;52.124;5.196;2022-09-09T17:07:04;2.92;;;1.50;;
20731;SDS011;10527;52.124;5.196;2022-09-09T17:12:05;4.32;;;1.45;;
20731;SDS011;10527;52.124;5.196;2022-09-09T17:14:32;3.42;;;1.23;;
20731;SDS011;10527;52.124;5.196;2022-09-09T17:16:59;2.85;;;1.40;;
20731;SDS011;10527;52.124;5.196;2022-09-09T17:19:46;3.78;;;1.25;;
20731;SDS011;10527;52.124;5.196;2022-09-09T17:22:13;4.32;;;1.27;;
20731;SDS011;10527;52.124;5.196;2022-09-09T17:24:42;3.03;;;1.45;;
20731;SDS011;10527;52.124;5.196;2022-09-09T17:27:12;2.38;;;1.30;;
20731;SDS011;10527;52.124;5.196;2022-09-09T17:29:39;2.63;;;1.10;;
20731;SDS011;10527;52.124;5.196;2022-09-09T17:32:06;4.03;;;1.13;;
20731;SDS011;10527;52.124;5.196;2022-09-09T17:34:36;2.78;;;1.33;;
20731;SDS011;10527;52.124;5.196;2022-09-09T17:37:05;3.25;;;1.17;;